Time;durP1;ratioP1;P1;durP2;ratioP2;P2;SDS_P1;SDS_P2;PMS_P1;PMS_P2;Temp;Humidity;BMP_temperature;BMP_pressure;BME280_temperature;BME280_humidity;BME280_pressure;Samples;Min_cycle;Max_cycle;Signal;HPM_P1;HPM_P2
2023/05/17 00:01:02;;;;;;;7.10;3.47;;;;;;;8.75;100.00;100663.44;5089005;28;20219;-69
2023/05/17 00:03:27;;;;;;;8.40;3.10;;;;;;;8.70;100.00;100664.41;5100194;28;20180;-68
2023/05/17 00:05:53;;;;;;;6.43;3.50;;;;;;;8.77;100.00;100669.31;5090790;28;20208;-68
2023/05/17 00:08:18;;;;;;;5.20;2.83;;;;;;;8.82;100.00;100673.41;5066894;28;20176;-69
2023/05/17 00:10:43;;;;;;;4.53;2.67;;;;;;;8.81;100.00;100676.03;5077430;28;20227;-68
2023/05/17 00:13:08;;;;;;;5.00;3.00;;;;;;;8.69;100.00;100673.00;5078876;28;20184;-70
2023/05/17 00:15:34;;;;;;;4.17;2.97;;;;;;;8.66;100.00;100678.25;5090833;28;20188;-69
2023/05/17 00:17:59;;;;;;;5.33;3.07;;;;;;;8.66;100.00;100674.88;5091945;28;20700;-68
2023/05/17 00:20:25;;;;;;;7.97;2.93;;;;;;;8.54;100.00;100678.72;5074469;28;20230;-67
2023/05/17 00:22:50;;;;;;;8.00;3.57;;;;;;;8.57;100.00;100678.63;5080485;28;20237;-68
2023/05/17 00:25:15;;;;;;;5.10;3.03;;;;;;;8.59;100.00;100684.50;5089196;28;20700;-68
2023/05/17 00:27:40;;;;;;;6.97;3.13;;;;;;;8.45;100.00;100677.28;5083236;28;20188;-68
2023/05/17 00:30:06;;;;;;;5.00;2.80;;;;;;;8.43;100.00;100681.63;5055881;28;20248;-68
2023/05/17 00:32:32;;;;;;;6.70;2.93;;;;;;;8.40;100.00;100684.31;5074501;28;20642;-68
2023/05/17 00:34:57;;;;;;;9.37;3.20;;;;;;;8.46;100.00;100681.56;5091537;28;20187;-69
2023/05/17 00:37:22;;;;;;;6.30;3.23;;;;;;;8.37;100.00;100690.41;5073552;28;20280;-69
2023/05/17 00:39:47;;;;;;;10.33;3.53;;;;;;;8.31;100.00;100684.63;5091725;28;20193;-68
2023/05/17 00:42:13;;;;;;;5.43;3.30;;;;;;;8.23;100.00;100685.75;5079610;28;20228;-68
2023/05/17 00:44:39;;;;;;;7.37;3.00;;;;;;;8.21;100.00;100691.81;5091672;28;20262;-68
2023/05/17 00:47:04;;;;;;;9.40;3.53;;;;;;;8.15;100.00;100692.03;5091134;28;21148;-69
2023/05/17 00:49:29;;;;;;;6.00;3.27;;;;;;;8.07;100.00;100697.44;5091324;28;20255;-68
2023/05/17 00:51:55;;;;;;;5.43;3.37;;;;;;;8.08;100.00;100688.84;5095352;28;20234;-68
2023/05/17 00:54:21;;;;;;;6.93;3.60;;;;;;;8.22;100.00;100693.50;5092524;28;20172;-69
2023/05/17 00:56:48;;;;;;;6.50;3.10;;;;;;;8.30;100.00;100683.81;5079630;28;20224;-69
2023/05/17 00:59:13;;;;;;;7.13;3.77;;;;;;;8.17;100.00;100687.69;5089563;28;20176;-70
2023/05/17 01:01:42;;;;;;;5.33;3.20;;;;;;;8.04;100.00;100698.38;5072681;28;20235;-69
2023/05/17 01:04:08;;;;;;;6.53;3.43;;;;;;;8.02;100.00;100697.56;5068456;28;20177;-70
2023/05/17 01:06:35;;;;;;;7.47;3.33;;;;;;;7.99;100.00;100697.69;5083295;28;20184;-69
2023/05/17 01:09:00;;;;;;;9.30;3.70;;;;;;;7.84;100.00;100701.63;5091438;28;20183;-70
2023/05/17 01:11:38;;;;;;;7.03;3.33;;;;;;;7.86;100.00;100699.84;5070878;28;20239;-70
2023/05/17 01:15:00;;;;;;;6.80;3.37;;;;;;;7.64;100.00;100697.16;5093639;28;20203;-69
2023/05/17 01:17:45;;;;;;;6.63;3.10;;;;;;;7.61;100.00;100704.94;5029303;28;20272;-69
2023/05/17 01:20:29;;;;;;;7.27;3.73;;;;;;;7.54;100.00;100711.97;5022264;28;20182;-69
2023/05/17 01:23:26;;;;;;;8.10;3.30;;;;;;;7.47;100.00;100705.38;5045135;28;20260;-70
2023/05/17 01:26:09;;;;;;;5.43;3.20;;;;;;;7.54;100.00;100703.44;5051829;28;20185;-70
2023/05/17 01:28:37;;;;;;;5.03;3.57;;;;;;;7.39;100.00;100708.19;5052440;28;20216;-70
2023/05/17 01:31:03;;;;;;;6.70;3.67;;;;;;;7.49;100.00;100716.41;5038752;28;20245;-69
2023/05/17 01:33:30;;;;;;;7.37;3.60;;;;;;;7.45;100.00;100717.38;5052315;28;20247;-69
2023/05/17 01:35:55;;;;;;;6.70;3.47;;;;;;;7.50;100.00;100712.94;5034874;28;20186;-69
2023/05/17 01:38:20;;;;;;;7.03;3.60;;;;;;;7.44;100.00;100718.25;5052300;28;20726;-69
2023/05/17 01:40:55;;;;;;;7.37;4.53;;;;;;;7.34;100.00;100715.16;5042307;28;20267;-69
2023/05/17 01:43:42;;;;;;;5.57;3.43;;;;;;;7.27;100.00;100722.19;5050082;28;20173;-69
2023/05/17 01:46:17;;;;;;;5.43;3.50;;;;;;;7.21;100.00;100711.31;5051519;28;20243;-69
2023/05/17 01:49:05;;;;;;;8.47;3.73;;;;;;;6.99;100.00;100723.91;5090641;28;20194;-69
2023/05/17 01:51:35;;;;;;;4.93;3.03;;;;;;;6.85;100.00;100717.47;5092854;28;20234;-69
2023/05/17 01:54:10;;;;;;;7.70;3.73;;;;;;;7.01;100.00;100717.00;5106061;28;20207;-69
2023/05/17 01:56:37;;;;;;;7.83;3.43;;;;;;;7.17;100.00;100722.50;5104669;28;20200;-69
2023/05/17 01:59:05;;;;;;;11.73;4.00;;;;;;;7.19;100.00;100718.19;5111330;28;20205;-69
2023/05/17 02:01:32;;;;;;;6.60;3.47;;;;;;;7.18;100.00;100717.38;5100208;28;20234;-69
2023/05/17 02:03:57;;;;;;;9.63;4.00;;;;;;;7.19;100.00;100720.75;5109506;28;20187;-69
2023/05/17 02:06:22;;;;;;;6.67;3.57;;;;;;;7.16;100.00;100721.69;5114531;28;20183;-69
2023/05/17 02:08:48;;;;;;;5.57;3.20;;;;;;;7.18;100.00;100721.63;5092841;28;20663;-69
2023/05/17 02:11:13;;;;;;;5.43;3.33;;;;;;;7.00;100.00;100717.94;5082698;28;20236;-69
2023/05/17 02:13:39;;;;;;;4.63;3.40;;;;;;;7.08;100.00;100721.94;5110891;28;20237;-69
2023/05/17 02:16:05;;;;;;;11.90;4.10;;;;;;;7.01;100.00;100719.56;5092213;28;20179;-70
2023/05/17 02:18:31;;;;;;;6.00;2.90;;;;;;;7.05;100.00;100718.63;5112499;28;20235;-69
2023/05/17 02:20:56;;;;;;;8.27;3.30;;;;;;;7.14;100.00;100722.63;5082352;28;20580;-69
2023/05/17 02:23:23;;;;;;;6.90;4.00;;;;;;;7.08;100.00;100719.38;5091043;28;20226;-69
2023/05/17 02:25:49;;;;;;;6.63;3.77;;;;;;;7.04;100.00;100717.75;5112675;28;20187;-69
2023/05/17 02:28:15;;;;;;;8.53;3.80;;;;;;;7.03;100.00;100723.78;5092849;28;20187;-70
2023/05/17 02:30:40;;;;;;;8.00;4.20;;;;;;;7.06;100.00;100722.84;5102006;28;20231;-68
2023/05/17 02:33:06;;;;;;;7.33;3.40;;;;;;;7.10;100.00;100725.25;5111257;28;20626;-69
2023/05/17 02:35:31;;;;;;;9.30;3.30;;;;;;;7.08;100.00;100721.94;5094423;28;20274;-69
2023/05/17 02:37:56;;;;;;;8.30;3.43;;;;;;;7.08;100.00;100721.94;5111951;28;20586;-69
2023/05/17 02:40:22;;;;;;;7.27;4.30;;;;;;;7.12;100.00;100727.78;5102769;28;20227;-68
2023/05/17 02:42:47;;;;;;;7.63;3.97;;;;;;;7.13;100.00;100724.31;5111463;28;20270;-69
2023/05/17 02:45:12;;;;;;;7.50;3.60;;;;;;;7.13;100.00;100729.44;5112704;28;20186;-69
2023/05/17 02:47:37;;;;;;;6.90;3.37;;;;;;;7.24;100.00;100734.25;5111805;28;20517;-69
2023/05/17 02:50:03;;;;;;;4.97;3.33;;;;;;;7.26;100.00;100732.47;5105833;28;20207;-69
2023/05/17 02:52:28;;;;;;;5.63;3.00;;;;;;;7.23;100.00;100730.84;5108656;28;20196;-69
2023/05/17 02:54:53;;;;;;;7.57;3.10;;;;;;;7.25;100.00;100741.88;5112728;28;20232;-69
2023/05/17 02:57:19;;;;;;;5.73;2.93;;;;;;;7.17;100.00;100740.41;5109288;28;20183;-69
2023/05/17 02:59:44;;;;;;;6.37;3.10;;;;;;;7.18;100.00;100742.09;5093375;28;20180;-69
2023/05/17 03:02:10;;;;;;;7.27;2.87;;;;;;;7.17;100.00;100753.22;5055329;28;20231;-69
2023/05/17 03:04:35;;;;;;;9.03;3.47;;;;;;;7.07;100.00;100744.97;5102457;28;20182;-69
2023/05/17 03:07:01;;;;;;;7.50;3.37;;;;;;;6.95;100.00;100757.25;5112463;28;20182;-69
2023/05/17 03:09:28;;;;;;;6.63;3.40;;;;;;;6.83;100.00;100761.88;5113152;28;20182;-69
2023/05/17 03:11:53;;;;;;;4.87;3.27;;;;;;;6.76;100.00;100761.19;5100580;28;20267;-69
2023/05/17 03:14:19;;;;;;;6.67;3.43;;;;;;;6.71;100.00;100765.59;5112986;28;20253;-69
2023/05/17 03:16:44;;;;;;;7.20;3.80;;;;;;;6.75;100.00;100767.22;5100414;28;20305;-69
2023/05/17 03:19:10;;;;;;;7.17;3.53;;;;;;;6.69;100.00;100767.38;5106689;28;20184;-68
2023/05/17 03:21:35;;;;;;;4.63;3.17;;;;;;;6.62;100.00;100777.78;5098872;27;20713;-68
2023/05/17 03:24:00;;;;;;;5.40;3.20;;;;;;;6.56;100.00;100774.53;5111595;28;20189;-68
2023/05/17 03:26:26;;;;;;;4.83;3.37;;;;;;;6.47;100.00;100773.06;5112122;28;20190;-69
2023/05/17 03:28:52;;;;;;;5.47;3.10;;;;;;;6.45;100.00;100773.13;5112811;28;20543;-69
2023/05/17 03:31:17;;;;;;;13.67;4.23;;;;;;;6.38;100.00;100773.31;5070091;27;20373;-69
2023/05/17 03:33:43;;;;;;;7.07;3.40;;;;;;;6.32;100.00;100779.44;5105895;28;20628;-69
2023/05/17 03:36:08;;;;;;;5.90;3.27;;;;;;;6.45;100.00;100783.34;5094338;28;20196;-69
2023/05/17 03:38:34;;;;;;;6.47;3.60;;;;;;;6.27;100.00;100778.72;5093010;28;20182;-69
2023/05/17 03:41:00;;;;;;;6.60;3.57;;;;;;;6.30;100.00;100783.72;5089140;28;20237;-69
2023/05/17 03:43:25;;;;;;;5.80;3.90;;;;;;;6.23;100.00;100788.16;5101268;28;20189;-68
2023/05/17 03:45:50;;;;;;;5.47;3.70;;;;;;;6.27;100.00;100773.59;5092817;28;20179;-69
2023/05/17 03:48:16;;;;;;;7.00;3.50;;;;;;;6.32;100.00;100776.88;5092948;28;20183;-69
2023/05/17 03:50:41;;;;;;;5.80;3.10;;;;;;;6.21;100.00;100789.91;5087240;28;20244;-68
2023/05/17 03:53:06;;;;;;;8.73;3.07;;;;;;;6.31;100.00;100785.41;5102952;28;20316;-69
2023/05/17 03:55:32;;;;;;;8.87;3.00;;;;;;;6.22;100.00;100785.66;5093223;28;20640;-69
2023/05/17 03:57:57;;;;;;;6.10;3.40;;;;;;;6.18;100.00;100786.59;5104938;28;20216;-69
2023/05/17 04:00:23;;;;;;;6.37;3.20;;;;;;;6.25;100.00;100790.66;5084095;28;20648;-68
2023/05/17 04:02:49;;;;;;;7.07;3.63;;;;;;;6.28;100.00;100794.00;5105430;28;20241;-69
2023/05/17 04:05:15;;;;;;;6.33;3.73;;;;;;;6.35;100.00;100793.84;5092004;28;20274;-69
2023/05/17 04:07:40;;;;;;;7.40;3.00;;;;;;;6.39;100.00;100790.34;5092650;28;20258;-69
2023/05/17 04:10:06;;;;;;;8.97;3.43;;;;;;;6.34;100.00;100787.91;5082055;28;20246;-69
2023/05/17 04:12:32;;;;;;;7.70;3.57;;;;;;;6.33;100.00;100790.50;5090374;28;20190;-69
2023/05/17 04:14:57;;;;;;;8.20;3.97;;;;;;;6.51;100.00;100794.28;5092203;28;20215;-69
2023/05/17 04:17:22;;;;;;;6.43;3.63;;;;;;;6.50;100.00;100796.00;5091867;28;20208;-69
2023/05/17 04:19:48;;;;;;;10.43;4.07;;;;;;;6.68;100.00;100781.06;5092213;28;20259;-69
2023/05/17 04:22:13;;;;;;;4.97;3.43;;;;;;;6.81;100.00;100786.66;5081723;28;20301;-70
2023/05/17 04:24:39;;;;;;;9.37;3.60;;;;;;;6.89;100.00;100800.06;5073689;28;20558;-70
2023/05/17 04:27:05;;;;;;;6.97;3.60;;;;;;;6.82;100.00;100796.81;5091602;28;20187;-69
2023/05/17 04:29:31;;;;;;;9.50;3.33;;;;;;;6.86;100.00;100802.69;5077330;28;20184;-69
2023/05/17 04:31:56;;;;;;;13.43;4.40;;;;;;;7.02;100.00;100798.84;5095953;28;20226;-69
2023/05/17 04:34:22;;;;;;;7.30;3.33;;;;;;;7.09;100.00;100807.19;5092397;28;20179;-69
2023/05/17 04:36:48;;;;;;;6.20;3.40;;;;;;;7.25;100.00;100807.56;5091345;28;20208;-69
2023/05/17 04:39:13;;;;;;;6.87;3.40;;;;;;;7.27;100.00;100805.81;5091968;28;20593;-68
2023/05/17 04:41:38;;;;;;;5.10;3.43;;;;;;;7.22;100.00;100808.50;5093542;28;20231;-68
2023/05/17 04:44:05;;;;;;;4.70;3.33;;;;;;;7.38;100.00;100802.91;5094614;28;20188;-68
2023/05/17 04:46:30;;;;;;;7.13;3.27;;;;;;;7.38;100.00;100808.03;5069467;28;20192;-69
2023/05/17 04:48:56;;;;;;;8.50;2.93;;;;;;;7.57;100.00;100814.28;5085910;28;20635;-70
2023/05/17 04:51:22;;;;;;;7.30;3.60;;;;;;;7.79;100.00;100815.34;5092011;28;20310;-69
2023/05/17 04:53:47;;;;;;;8.23;3.07;;;;;;;7.93;100.00;100826.00;5080476;28;20287;-69
2023/05/17 04:56:12;;;;;;;4.83;3.43;;;;;;;8.01;100.00;100824.03;5094821;28;20227;-69
2023/05/17 04:58:37;;;;;;;7.07;3.07;;;;;;;8.17;100.00;100826.09;5083719;28;20176;-69
2023/05/17 05:01:04;;;;;;;6.00;3.43;;;;;;;8.36;100.00;100824.59;5092269;28;20222;-69
2023/05/17 05:03:29;;;;;;;7.90;3.10;;;;;;;8.59;100.00;100832.41;5102090;28;20262;-69
2023/05/17 05:05:55;;;;;;;8.33;3.43;;;;;;;8.53;100.00;100833.47;5094404;28;20259;-69
2023/05/17 05:08:20;;;;;;;5.67;3.13;;;;;;;8.74;100.00;100843.88;5095508;28;20511;-69
2023/05/17 05:10:45;;;;;;;7.43;3.00;;;;;;;8.77;100.00;100842.03;5089618;28;20238;-69
2023/05/17 05:13:10;;;;;;;6.77;3.50;;;;;;;8.87;100.00;100842.56;5104820;28;20237;-68
2023/05/17 05:15:36;;;;;;;6.00;3.63;;;;;;;8.98;100.00;100844.72;5094383;28;20200;-69
2023/05/17 05:18:01;;;;;;;5.27;3.47;;;;;;;9.24;100.00;100848.06;5079241;28;20172;-69
2023/05/17 05:20:27;;;;;;;8.67;3.77;;;;;;;9.31;100.00;100846.97;5067985;28;20232;-67
2023/05/17 05:22:52;;;;;;;12.33;4.07;;;;;;;9.29;100.00;100853.88;5107188;28;20306;-68
2023/05/17 05:25:17;;;;;;;10.37;3.80;;;;;;;9.44;100.00;100860.16;5094210;28;21022;-68
2023/05/17 05:27:42;;;;;;;8.17;3.50;;;;;;;9.55;100.00;100854.63;5076392;28;20184;-68
2023/05/17 05:30:08;;;;;;;4.63;3.10;;;;;;;9.57;100.00;100852.84;5084358;28;20597;-60
2023/05/17 05:32:36;;;;;;;7.83;3.50;;;;;;;9.66;100.00;100857.63;5109586;28;20208;-60
2023/05/17 05:35:01;;;;;;;9.30;3.80;;;;;;;9.58;100.00;100855.34;5093597;28;20184;-67
2023/05/17 05:37:26;;;;;;;7.43;3.67;;;;;;;9.71;100.00;100853.13;5093968;28;20615;-67
2023/05/17 05:39:51;;;;;;;9.83;4.33;;;;;;;9.77;100.00;100849.50;5074230;28;20237;-67
2023/05/17 05:42:17;;;;;;;9.87;3.63;;;;;;;9.99;100.00;100852.88;5088124;28;20900;-67
2023/05/17 05:44:42;;;;;;;7.93;3.70;;;;;;;9.78;100.00;100864.84;5071677;28;20173;-67
2023/05/17 05:47:07;;;;;;;5.83;3.90;;;;;;;9.74;100.00;100855.59;5094299;28;20172;-67
2023/05/17 05:49:32;;;;;;;6.33;3.80;;;;;;;10.16;100.00;100859.09;5094561;28;20191;-68
2023/05/17 05:51:58;;;;;;;11.27;3.97;;;;;;;10.61;100.00;100870.97;5098935;28;20579;-69
2023/05/17 05:54:23;;;;;;;11.67;3.63;;;;;;;10.92;100.00;100863.66;5095076;28;20317;-67
2023/05/17 05:56:50;;;;;;;7.27;3.30;;;;;;;10.95;100.00;100872.09;5094260;28;20206;-67
2023/05/17 05:59:15;;;;;;;6.50;3.77;;;;;;;10.97;100.00;100869.44;5093958;28;20175;-67
2023/05/17 06:01:40;;;;;;;9.43;3.93;;;;;;;11.20;100.00;100877.88;5099108;28;20262;-67
2023/05/17 06:04:05;;;;;;;7.30;3.83;;;;;;;11.37;100.00;100880.53;5092938;28;20211;-67
2023/05/17 06:06:31;;;;;;;7.03;3.60;;;;;;;11.34;100.00;100887.56;5093685;28;20188;-67
2023/05/17 06:08:56;;;;;;;9.30;3.70;;;;;;;11.18;100.00;100885.69;5075956;28;20205;-67
2023/05/17 06:11:23;;;;;;;7.53;3.80;;;;;;;11.34;100.00;100885.84;5093296;28;20316;-66
2023/05/17 06:13:48;;;;;;;7.10;3.97;;;;;;;11.97;100.00;100887.28;5099026;28;20562;-67
2023/05/17 06:16:13;;;;;;;6.50;3.37;;;;;;;12.01;100.00;100885.38;5093166;28;20199;-67
2023/05/17 06:18:38;;;;;;;6.20;3.40;;;;;;;12.13;99.99;100894.25;5093402;28;20176;-67
2023/05/17 06:21:04;;;;;;;8.80;3.30;;;;;;;12.00;99.14;100894.03;5082818;28;20666;-67
2023/05/17 06:23:29;;;;;;;10.07;3.20;;;;;;;11.90;100.00;100903.91;5085085;28;20227;-67
2023/05/17 06:25:55;;;;;;;8.70;3.50;;;;;;;11.95;99.82;100905.34;5079616;28;20185;-67
2023/05/17 06:28:20;;;;;;;8.63;3.77;;;;;;;12.48;98.38;100904.59;5092727;28;20172;-67
2023/05/17 06:30:45;;;;;;;12.10;3.43;;;;;;;13.01;95.07;100902.78;5087879;28;20230;-66
2023/05/17 06:33:11;;;;;;;9.03;3.67;;;;;;;13.96;88.04;100904.59;5097085;28;20226;-67
2023/05/17 06:35:37;;;;;;;6.47;3.60;;;;;;;14.23;78.44;100903.97;5093472;28;20184;-67
2023/05/17 06:38:03;;;;;;;6.87;3.10;;;;;;;14.91;72.80;100913.00;5093483;28;20191;-68
2023/05/17 06:40:28;;;;;;;7.40;3.40;;;;;;;14.39;75.73;100916.88;5086179;28;20223;-68
2023/05/17 06:42:53;;;;;;;7.77;3.67;;;;;;;13.88;77.48;100919.72;5105455;28;20186;-68
2023/05/17 06:45:19;;;;;;;5.37;3.10;;;;;;;13.59;80.37;100923.91;5084710;28;20649;-68
2023/05/17 06:47:44;;;;;;;6.87;3.20;;;;;;;12.82;83.27;100934.72;5093513;28;20259;-67
2023/05/17 06:50:10;;;;;;;5.70;3.40;;;;;;;12.93;88.63;100936.75;5083416;28;20180;-68
2023/05/17 06:52:35;;;;;;;8.87;3.50;;;;;;;11.90;91.43;100935.66;5087096;28;20697;-67
2023/05/17 06:55:00;;;;;;;9.10;3.33;;;;;;;11.64;93.50;100934.31;5083450;28;20230;-68
2023/05/17 06:57:26;;;;;;;9.50;3.60;;;;;;;11.93;92.63;100925.22;5091325;28;20213;-69
2023/05/17 06:59:51;;;;;;;8.37;3.77;;;;;;;12.16;93.40;100925.91;5108250;28;20176;-68
2023/05/17 07:02:17;;;;;;;5.53;3.20;;;;;;;12.33;89.91;100934.56;5081858;28;20579;-67
2023/05/17 07:04:43;;;;;;;8.20;3.57;;;;;;;12.19;90.73;100922.34;5092939;28;20183;-68
2023/05/17 07:07:08;;;;;;;6.70;3.03;;;;;;;12.77;84.37;100926.38;5092632;28;20263;-70
2023/05/17 07:09:33;;;;;;;4.40;2.97;;;;;;;14.19;66.69;100923.19;5093136;28;20654;-71
2023/05/17 07:11:58;;;;;;;8.27;3.20;;;;;;;14.08;69.27;100928.13;5080380;28;20219;-69
2023/05/17 07:14:24;;;;;;;5.97;3.60;;;;;;;13.71;72.13;100937.00;5084035;28;20227;-69
2023/05/17 07:16:49;;;;;;;6.63;3.07;;;;;;;13.45;74.07;100940.16;5095145;28;20766;-69
2023/05/17 07:19:14;;;;;;;6.93;3.07;;;;;;;13.29;74.60;100940.09;5094192;28;20247;-68
2023/05/17 07:21:40;;;;;;;7.40;3.30;;;;;;;13.27;77.65;100931.59;5067347;28;20670;-68
2023/05/17 07:24:06;;;;;;;5.10;2.90;;;;;;;12.62;77.64;100947.78;5083417;28;20207;-69
2023/05/17 07:26:31;;;;;;;6.73;2.83;;;;;;;12.42;82.30;100944.44;5091915;28;20176;-69
2023/05/17 07:28:57;;;;;;;6.80;2.93;;;;;;;12.32;83.69;100949.22;5074209;28;20612;-69
2023/05/17 07:31:22;;;;;;;8.13;2.97;;;;;;;12.42;89.06;100936.72;5053413;28;20682;-69
2023/05/17 07:33:49;;;;;;;7.87;2.90;;;;;;;12.51;87.95;100940.56;5093437;28;20188;-69
2023/05/17 07:36:14;;;;;;;6.80;3.23;;;;;;;13.08;87.43;100941.16;5091928;28;20180;-70
2023/05/17 07:38:39;;;;;;;8.13;3.20;;;;;;;13.65;77.56;100933.91;5070880;28;20185;-69
2023/05/17 07:41:08;;;;;;;7.80;3.63;;;;;;;13.03;82.96;100940.53;5085698;28;20673;-68
2023/05/17 07:43:36;;;;;;;6.87;3.27;;;;;;;12.88;85.46;100942.13;5081559;28;20696;-69
2023/05/17 07:46:02;;;;;;;5.37;2.97;;;;;;;14.01;83.76;100940.56;5091415;28;20180;-70
2023/05/17 07:48:27;;;;;;;7.50;3.30;;;;;;;15.69;68.78;100940.25;5107835;28;20631;-69
2023/05/17 07:50:53;;;;;;;5.63;2.90;;;;;;;17.17;57.13;100939.34;5080409;28;20691;-70
2023/05/17 07:53:18;;;;;;;7.17;3.03;;;;;;;17.74;54.25;100932.75;5077969;28;20276;-69
2023/05/17 07:55:44;;;;;;;7.47;3.17;;;;;;;17.81;51.99;100935.72;5087527;28;20630;-69
2023/05/17 07:58:13;;;;;;;7.43;3.30;;;;;;;17.41;54.90;100936.78;5089009;28;20184;-70
2023/05/17 08:00:39;;;;;;;7.10;3.40;;;;;;;16.53;56.11;100940.94;5085705;28;20227;-69
2023/05/17 08:03:06;;;;;;;3.80;2.63;;;;;;;16.34;54.16;100935.31;5103132;28;20176;-68
2023/05/17 08:05:31;;;;;;;6.87;3.03;;;;;;;15.71;57.79;100943.56;5073382;28;20271;-68
2023/05/17 08:07:59;;;;;;;5.67;3.20;;;;;;;16.00;57.86;100938.34;5092003;28;20271;-68
2023/05/17 08:10:25;;;;;;;6.17;3.27;;;;;;;15.75;58.28;100942.47;5063951;28;20234;-67
2023/05/17 08:12:50;;;;;;;6.07;2.80;;;;;;;14.65;59.90;100941.28;5104381;28;20251;-69
2023/05/17 08:15:16;;;;;;;6.40;3.30;;;;;;;14.69;62.98;100941.94;5073690;28;20270;-69
2023/05/17 08:17:41;;;;;;;6.27;2.80;;;;;;;14.12;64.67;100942.56;5092209;28;20176;-69
2023/05/17 08:20:07;;;;;;;8.10;3.00;;;;;;;14.02;60.90;100939.66;5082558;28;20208;-69
2023/05/17 08:22:32;;;;;;;4.77;2.20;;;;;;;13.59;58.08;100931.66;5104992;28;20220;-69
2023/05/17 08:24:58;;;;;;;5.57;2.47;;;;;;;13.24;57.19;100930.81;5078019;28;20248;-69
2023/05/17 08:27:24;;;;;;;8.77;2.47;;;;;;;12.95;58.64;100941.84;5072715;28;20611;-69
2023/05/17 08:29:52;;;;;;;4.70;2.47;;;;;;;12.87;59.33;100930.13;5075241;28;20204;-68
2023/05/17 08:32:18;;;;;;;6.17;2.60;;;;;;;13.72;54.99;100930.91;5101997;28;20219;-69
2023/05/17 08:34:43;;;;;;;5.90;2.30;;;;;;;13.19;54.44;100934.56;5075196;28;20233;-69
2023/05/17 08:37:08;;;;;;;7.47;2.90;;;;;;;13.29;58.61;100932.34;5093380;28;20202;-64
2023/05/17 08:39:34;;;;;;;8.90;2.53;;;;;;;13.21;58.76;100925.84;5095218;28;20657;-67
2023/05/17 08:42:01;;;;;;;4.40;2.33;;;;;;;13.29;61.74;100930.59;5083499;28;20219;-71
2023/05/17 08:44:27;;;;;;;6.37;3.03;;;;;;;13.20;60.43;100931.91;5074263;28;20238;-69
2023/05/17 08:46:55;;;;;;;4.70;2.70;;;;;;;13.07;57.85;100923.97;5094008;28;20184;-70
2023/05/17 08:49:24;;;;;;;5.20;2.60;;;;;;;13.01;59.36;100937.19;5095630;28;20237;-72
2023/05/17 08:51:52;;;;;;;7.17;3.30;;;;;;;13.10;62.25;100932.47;5098455;28;20242;-71
2023/05/17 08:54:17;;;;;;;7.63;2.63;;;;;;;13.08;60.24;100941.16;5095728;28;20560;-70
2023/05/17 08:56:43;;;;;;;5.20;2.57;;;;;;;12.87;59.55;100934.47;5082154;28;20269;-71
2023/05/17 08:59:11;;;;;;;7.60;3.03;;;;;;;12.69;60.81;100928.50;5093666;28;20180;-70
2023/05/17 09:01:40;;;;;;;5.53;2.90;;;;;;;12.64;61.19;100935.63;5076819;28;20236;-70
2023/05/17 09:04:08;;;;;;;7.17;3.13;;;;;;;12.55;61.70;100927.44;5096999;28;20168;-70
2023/05/17 09:06:34;;;;;;;5.93;3.40;;;;;;;12.82;62.93;100924.38;5094902;28;20286;-70
2023/05/17 09:09:00;;;;;;;6.37;2.93;;;;;;;15.24;53.54;100924.84;5095149;28;20599;-71
2023/05/17 09:11:30;;;;;;;3.87;2.43;;;;;;;18.24;46.12;100919.63;5095450;28;20663;-71
2023/05/17 09:14:03;;;;;;;4.87;2.37;;;;;;;20.79;39.10;100919.66;5098984;28;20278;-69
2023/05/17 09:16:29;;;;;;;8.87;2.97;;;;;;;21.85;35.83;100927.13;5110683;28;20796;-70
2023/05/17 09:18:56;;;;;;;5.73;3.00;;;;;;;22.26;34.29;100927.78;5095079;28;20186;-71
2023/05/17 09:21:23;;;;;;;8.53;3.03;;;;;;;22.88;31.90;100930.84;5094405;28;20284;-70
2023/05/17 09:23:50;;;;;;;5.07;2.70;;;;;;;22.21;33.32;100930.81;5100032;28;20733;-68
2023/05/17 09:26:17;;;;;;;6.23;3.00;;;;;;;21.72;33.85;100924.78;5073320;28;20173;-69
2023/05/17 09:28:42;;;;;;;6.17;2.83;;;;;;;22.63;32.41;100939.34;5094782;28;20176;-69
2023/05/17 09:31:09;;;;;;;6.57;2.90;;;;;;;21.21;32.29;100937.00;5092429;28;20715;-72
2023/05/17 09:33:50;;;;;;;5.10;2.80;;;;;;;20.21;35.12;100936.59;5101468;28;20222;-70
2023/05/17 09:36:22;;;;;;;6.03;2.27;;;;;;;18.36;36.24;100939.53;5093520;28;20184;-69
2023/05/17 09:38:55;;;;;;;6.77;3.40;;;;;;;16.85;39.96;100927.56;5090141;28;20186;-70
2023/05/17 09:41:21;;;;;;;3.97;2.57;;;;;;;15.56;43.37;100940.16;5075577;28;20536;-68
2023/05/17 09:43:48;;;;;;;4.90;2.50;;;;;;;14.45;47.94;100932.06;5085491;28;20179;-69
2023/05/17 09:46:15;;;;;;;7.53;2.87;;;;;;;14.63;49.55;100929.31;5093370;28;20212;-67
2023/05/17 09:48:43;;;;;;;6.10;3.27;;;;;;;14.89;50.86;100930.38;5094131;28;20273;-69
2023/05/17 09:51:08;;;;;;;7.30;3.17;;;;;;;15.01;50.49;100929.66;5091981;28;20651;-68
2023/05/17 09:53:38;;;;;;;6.13;3.43;;;;;;;15.15;48.83;100928.81;5100744;28;20444;-70
2023/05/17 09:56:05;;;;;;;5.87;3.03;;;;;;;14.70;49.79;100933.25;5072154;28;20268;-70
2023/05/17 09:58:32;;;;;;;8.43;3.70;;;;;;;14.95;51.50;100924.84;5102148;28;20545;-69
2023/05/17 10:01:07;;;;;;;4.83;2.90;;;;;;;15.14;50.57;100931.50;5069672;28;20714;-70
2023/05/17 10:03:34;;;;;;;7.27;2.90;;;;;;;15.19;49.44;100926.06;5098910;28;20238;-70
2023/05/17 10:06:04;;;;;;;5.93;3.50;;;;;;;15.31;50.29;100925.31;5091804;28;20183;-70
2023/05/17 10:08:30;;;;;;;3.33;2.40;;;;;;;16.78;48.54;100921.13;5093980;28;20183;-68
2023/05/17 10:11:02;;;;;;;4.83;2.40;;;;;;;15.86;44.88;100930.59;5065118;28;20227;-70
2023/05/17 10:13:34;;;;;;;6.00;2.90;;;;;;;15.73;47.04;100926.16;5092831;28;20188;-69
2023/05/17 10:16:02;;;;;;;5.83;2.53;;;;;;;16.22;48.73;100914.41;5093582;28;20199;-68
2023/05/17 10:18:29;;;;;;;4.27;2.40;;;;;;;17.85;43.46;100911.13;5093550;28;20210;-70
2023/05/17 10:20:55;;;;;;;8.50;2.80;;;;;;;18.00;43.33;100912.66;5089471;28;20558;-69
2023/05/17 10:23:21;;;;;;;6.00;2.97;;;;;;;17.06;43.54;100917.50;5100019;28;20216;-69
2023/05/17 10:25:48;;;;;;;8.30;3.33;;;;;;;16.65;44.68;100904.72;5075334;28;20196;-69
2023/05/17 10:28:16;;;;;;;7.10;3.10;;;;;;;15.87;45.10;100922.72;5093354;28;20184;-70
2023/05/17 10:30:42;;;;;;;5.20;2.80;;;;;;;14.76;48.28;100916.50;5088242;28;20261;-70
2023/05/17 10:33:08;;;;;;;6.40;3.27;;;;;;;15.03;49.48;100911.41;5103882;28;20179;-70
2023/05/17 10:35:34;;;;;;;4.47;2.83;;;;;;;15.05;47.25;100912.16;5093172;28;20645;-70
2023/05/17 10:38:00;;;;;;;6.37;2.70;;;;;;;14.90;47.82;100920.88;5093264;28;20263;-70
2023/05/17 10:44:41;;;;;;;6.60;2.90;;;;;;;15.27;46.91;100913.44;5089198;28;20237;-71
2023/05/17 10:47:07;;;;;;;5.13;2.80;;;;;;;15.53;47.45;100913.59;5082565;28;20229;-71
2023/05/17 10:49:36;;;;;;;6.33;2.90;;;;;;;15.98;48.10;100903.88;5093339;28;20217;-70
2023/05/17 10:52:29;;;;;;;6.70;2.97;;;;;;;16.73;44.54;100900.66;5075800;28;20228;-68
2023/05/17 10:54:56;;;;;;;8.37;3.23;;;;;;;16.45;43.75;100905.09;5078943;28;20188;-68
2023/05/17 10:57:32;;;;;;;4.87;2.77;;;;;;;16.27;44.19;100901.13;5092251;28;20547;-70
2023/05/17 11:00:00;;;;;;;4.60;3.03;;;;;;;16.12;44.14;100900.38;5074877;28;20630;-68
2023/05/17 11:02:27;;;;;;;5.60;2.73;;;;;;;15.92;45.31;100899.06;5083121;28;20559;-68
2023/05/17 11:04:54;;;;;;;6.50;3.00;;;;;;;15.85;44.14;100890.88;5062851;28;20189;-69
2023/05/17 11:07:30;;;;;;;5.03;2.80;;;;;;;15.72;46.87;100895.94;5090579;28;20606;-67
2023/05/17 11:09:59;;;;;;;5.43;2.97;;;;;;;16.11;47.25;100880.53;5092666;28;20179;-69
2023/05/17 11:12:37;;;;;;;7.10;3.17;;;;;;;15.89;47.77;100884.53;5094758;28;20629;-70
2023/05/17 11:15:14;;;;;;;6.78;3.40;;;;;;;16.02;49.52;100869.00;5063500;28;20429;-69
2023/05/17 11:17:42;;;;;;;4.83;3.23;;;;;;;15.91;51.20;100890.44;5106669;28;20764;-69
2023/05/17 11:20:28;;;;;;;9.37;3.30;;;;;;;16.22;49.55;100882.44;5060810;28;20216;-69
2023/05/17 11:23:00;;;;;;;6.20;3.03;;;;;;;16.48;45.26;100888.47;5103976;28;20223;-69
2023/05/17 11:25:46;;;;;;;7.70;3.00;;;;;;;16.48;45.52;100883.28;5091958;28;20258;-70
2023/05/17 11:28:21;;;;;;;5.73;2.97;;;;;;;16.69;46.70;100878.41;5073339;28;20310;-69